Black Canyon City, AZ (85324)

5:55 PM MST on March 27, 2017 (GMT -0700)
North New River | | Change Station

Elev 2287 ft 33.94 °N, 112.09 °W | Updated 8 seconds ago

Partly Cloudy
Partly Cloudy
70.9 °F
Feels Like 74 °F
N
9.4
Wind Variable Wind from South
Gusts 12.5 mph

Today
High -- | Low -- °F
--% Chance of Precip.
Yesterday
High -- | Low -- °F
Precip. -- in
Pressure 29.66 in
Visibility 10.0 miles
Clouds Clear
Heat Index 74 °F
Dew Point 27 °F
Humidity 19%
Rainfall 0.00 in
Snow Depth Not available.
6:22 AM 6:45 PM
Waning Crescent, 0% visible
METAR KDVT 280053Z AUTO 24015G20KT 10SM CLR 24/04 A2970 RMK AO2 LTG DSNT NW SLP043 T02390039
Pressure 29.66 in
Visibility 10.0 miles
Clouds Clear
Heat Index 74 °F
Dew Point 27 °F
Humidity 19%
Rainfall 0.00 in
Snow Depth Not available.
6:22 AM 6:45 PM
Waning Crescent, 0% visible
METAR KDVT 280053Z AUTO 24015G20KT 10SM CLR 24/04 A2970 RMK AO2 LTG DSNT NW SLP043 T02390039

Get Severe Weather Alerts

Thanks for signing up!

Be on the lookout for a verification email in your inbox.

You'll start receiving the daily forecast at 8 AM.

×

10-Day Weather Forecast

Almanac

Astronomy

Mar. 27, 2017 Rise Set
Actual Time
Civil Twilight
Nautical Twilight
Astronomical Twilight
Moon
Length of Visible Light
Length of Day
Tomorrow will be .
, % of the Moon is Illuminated

Today's Extremes

State Highs State Lows

Community

WunderPhotos

Upload Photos

1,962,540 photos uploaded!

WunderBlog® & News

Nearby

Air Quality

  Air Quality AQ Index Pollutant
Not available.

Snow Depth

Station Depth Elevation

Earthquake Activity

City Distance Mag. Time & Date
Minimum magnitude displayed is 2.5.

Earthquake Activity

City Distance Mag. Time & Date
Minimum magnitude displayed is 2.5.

Coastal Water Temperatures

Place Temperature

Stations

Nearby Weather Stations

Station Location Temp. Windchill Dew Point Humidity Wind Precip. Elev Updated Type
                   

Watches & Warnings

There are currently no watches in effect.